createdAt,value
2023-05-14T00:01:23.876Z,100.00
2023-05-14T00:03:53.303Z,100.00
2023-05-14T00:06:21.522Z,100.00
2023-05-14T00:08:49.378Z,100.00
2023-05-14T00:11:17.254Z,100.00
2023-05-14T00:13:45.087Z,100.00
2023-05-14T00:16:13.124Z,100.00
2023-05-14T00:18:41.355Z,100.00
2023-05-14T00:21:10.505Z,100.00
2023-05-14T00:23:38.383Z,100.00
2023-05-14T00:26:06.289Z,100.00
2023-05-14T00:28:34.233Z,100.00
2023-05-14T00:31:02.117Z,100.00
2023-05-14T00:33:29.887Z,100.00
2023-05-14T00:35:57.699Z,100.00
2023-05-14T00:38:28.464Z,100.00
2023-05-14T00:40:56.646Z,100.00
2023-05-14T00:43:25.202Z,100.00
2023-05-14T00:45:56.028Z,100.00
2023-05-14T00:48:30.018Z,100.00
2023-05-14T00:51:03.102Z,100.00
2023-05-14T00:53:36.807Z,100.00
2023-05-14T00:56:08.467Z,100.00
2023-05-14T00:58:42.459Z,100.00
2023-05-14T01:04:06.561Z,100.00
2023-05-14T01:06:52.153Z,100.00
2023-05-14T01:09:31.289Z,100.00
2023-05-14T01:12:10.721Z,100.00
2023-05-14T01:14:47.189Z,100.00
2023-05-14T01:17:24.282Z,100.00
2023-05-14T01:19:58.292Z,100.00
2023-05-14T01:22:28.709Z,100.00
2023-05-14T01:25:05.363Z,100.00
2023-05-14T01:27:44.318Z,100.00
2023-05-14T01:30:21.006Z,100.00
2023-05-14T01:32:56.158Z,100.00
2023-05-14T01:35:29.538Z,100.00
2023-05-14T01:38:16.754Z,100.00
2023-05-14T01:40:47.659Z,100.00
2023-05-14T01:43:17.615Z,100.00
2023-05-14T01:45:48.535Z,100.00
2023-05-14T01:48:20.715Z,100.00
2023-05-14T01:50:52.700Z,100.00
2023-05-14T01:53:27.692Z,100.00
2023-05-14T01:56:04.584Z,100.00
2023-05-14T01:58:38.352Z,100.00
2023-05-14T02:01:10.707Z,100.00
2023-05-14T02:03:51.266Z,100.00
2023-05-14T02:06:26.219Z,100.00
2023-05-14T02:09:06.386Z,100.00
2023-05-14T02:11:40.693Z,100.00
2023-05-14T02:14:11.633Z,100.00
2023-05-14T02:16:48.144Z,100.00
2023-05-14T02:19:19.283Z,100.00
2023-05-14T02:21:55.142Z,100.00
2023-05-14T02:24:29.117Z,100.00
2023-05-14T02:27:01.361Z,100.00
2023-05-14T02:29:30.188Z,100.00
2023-05-14T02:32:03.573Z,100.00
2023-05-14T02:34:44.534Z,100.00
2023-05-14T02:37:28.913Z,100.00
2023-05-14T02:39:59.094Z,100.00
2023-05-14T02:42:33.758Z,100.00
2023-05-14T02:45:04.730Z,100.00
2023-05-14T02:47:41.482Z,100.00
2023-05-14T02:50:11.716Z,100.00
2023-05-14T02:52:51.151Z,100.00
2023-05-14T02:55:26.634Z,100.00
2023-05-14T02:57:55.693Z,100.00
2023-05-14T03:00:26.102Z,100.00
2023-05-14T03:02:58.921Z,100.00
2023-05-14T03:05:30.103Z,100.00
2023-05-14T03:07:59.572Z,100.00
2023-05-14T03:10:33.169Z,100.00
2023-05-14T03:13:02.121Z,100.00
2023-05-14T03:15:35.413Z,100.00
2023-05-14T03:18:07.674Z,100.00
2023-05-14T03:20:36.632Z,100.00
2023-05-14T03:23:07.392Z,100.00
2023-05-14T03:25:45.354Z,100.00
2023-05-14T03:28:24.792Z,100.00
2023-05-14T03:31:01.820Z,100.00
2023-05-14T03:33:32.115Z,100.00
2023-05-14T03:36:13.206Z,100.00
2023-05-14T03:38:55.369Z,100.00
2023-05-14T03:41:30.324Z,100.00
2023-05-14T03:44:01.301Z,100.00
2023-05-14T03:46:35.688Z,100.00
2023-05-14T03:49:23.250Z,100.00
2023-05-14T03:52:01.922Z,100.00
2023-05-14T03:54:36.551Z,100.00
2023-05-14T03:57:06.947Z,100.00
2023-05-14T03:59:36.692Z,100.00
2023-05-14T04:02:09.899Z,100.00
2023-05-14T04:04:38.533Z,100.00
2023-05-14T04:07:09.035Z,100.00
2023-05-14T04:09:52.232Z,100.00
2023-05-14T04:12:32.854Z,100.00
2023-05-14T04:15:04.427Z,100.00
2023-05-14T04:17:39.042Z,100.00
2023-05-14T04:20:13.991Z,100.00
2023-05-14T04:22:45.117Z,100.00
2023-05-14T04:25:15.457Z,100.00
2023-05-14T04:27:46.301Z,100.00
2023-05-14T04:30:35.878Z,100.00
2023-05-14T04:33:12.512Z,100.00
2023-05-14T04:35:41.787Z,100.00
2023-05-14T04:38:11.483Z,100.00
2023-05-14T04:40:40.056Z,100.00
2023-05-14T04:43:14.903Z,100.00
2023-05-14T04:46:02.490Z,100.00
2023-05-14T04:48:39.890Z,100.00
2023-05-14T04:51:14.341Z,100.00
2023-05-14T04:53:44.757Z,100.00
2023-05-14T04:56:15.081Z,100.00
2023-05-14T04:58:50.314Z,100.00
2023-05-14T05:01:22.502Z,100.00
2023-05-14T05:03:58.414Z,100.00
2023-05-14T05:06:30.160Z,100.00
2023-05-14T05:09:03.505Z,100.00
2023-05-14T05:11:31.414Z,100.00
2023-05-14T05:14:00.765Z,99.81
2023-05-14T05:16:28.653Z,97.65
2023-05-14T05:18:56.553Z,97.32
2023-05-14T05:21:24.444Z,97.18
2023-05-14T05:23:52.213Z,96.02
2023-05-14T05:26:20.097Z,94.62
2023-05-14T05:28:47.924Z,94.85
2023-05-14T05:31:19.643Z,95.23
2023-05-14T05:33:49.216Z,93.59
2023-05-14T05:36:17.068Z,92.66
2023-05-14T05:38:44.833Z,92.54
2023-05-14T05:41:12.640Z,90.79
2023-05-14T05:43:40.637Z,90.21
2023-05-14T05:46:08.545Z,90.83
2023-05-14T05:48:37.743Z,87.14
2023-05-14T05:51:05.947Z,88.90
2023-05-14T05:53:33.837Z,86.72
2023-05-14T05:56:01.638Z,87.42
2023-05-14T05:58:29.464Z,86.40
2023-05-14T06:00:58.191Z,85.81
2023-05-14T06:03:27.018Z,86.30
2023-05-14T06:05:56.160Z,88.54
2023-05-14T06:08:23.969Z,85.40
2023-05-14T06:10:51.821Z,83.17
2023-05-14T06:13:19.599Z,83.74
2023-05-14T06:15:47.380Z,81.18
2023-05-14T06:18:15.296Z,81.42
2023-05-14T06:20:43.250Z,80.32
2023-05-14T06:23:12.510Z,79.41
2023-05-14T06:25:40.378Z,77.12
2023-05-14T06:28:08.172Z,74.09
2023-05-14T06:30:35.974Z,71.79
2023-05-14T06:33:03.947Z,68.34
2023-05-14T06:35:31.887Z,68.24
2023-05-14T06:37:59.852Z,66.57
2023-05-14T06:40:29.058Z,65.40
2023-05-14T06:42:56.820Z,66.90
2023-05-14T06:45:24.683Z,66.41
2023-05-14T06:47:52.652Z,64.51
2023-05-14T06:50:20.569Z,66.56
2023-05-14T06:52:48.709Z,65.32
2023-05-14T06:55:16.549Z,65.14
2023-05-14T06:57:45.733Z,62.95
2023-05-14T07:00:15.701Z,60.36
2023-05-14T07:02:43.558Z,58.08
2023-05-14T07:05:11.558Z,58.25
2023-05-14T07:07:39.556Z,57.24
2023-05-14T07:10:08.519Z,54.71
2023-05-14T07:12:36.356Z,53.96
2023-05-14T07:15:06.677Z,55.42
2023-05-14T07:17:34.740Z,53.76
2023-05-14T07:20:02.806Z,53.64
2023-05-14T07:22:30.709Z,55.68
2023-05-14T07:24:58.590Z,53.32
2023-05-14T07:27:26.396Z,50.53
2023-05-14T07:29:54.226Z,50.92
2023-05-14T07:32:25.131Z,50.54
2023-05-14T07:34:53.153Z,49.56
2023-05-14T07:37:23.929Z,48.32
2023-05-14T07:39:52.081Z,46.50
2023-05-14T07:42:31.701Z,45.91
2023-05-14T07:45:02.854Z,45.88
2023-05-14T07:47:32.461Z,46.28
2023-05-14T07:50:00.943Z,46.08
2023-05-14T07:52:28.947Z,45.87
2023-05-14T07:54:56.809Z,45.08
2023-05-14T07:57:24.643Z,45.80
2023-05-14T07:59:52.538Z,43.70
2023-05-14T08:02:20.497Z,41.20
2023-05-14T08:04:49.786Z,41.47
2023-05-14T08:07:17.638Z,41.19
2023-05-14T08:09:45.463Z,40.32
2023-05-14T08:12:13.313Z,37.64
2023-05-14T08:14:41.662Z,37.53
2023-05-14T08:17:09.806Z,37.30
2023-05-14T08:19:37.905Z,38.03
2023-05-14T08:22:07.437Z,36.28
2023-05-14T08:24:35.434Z,36.85
2023-05-14T08:27:03.401Z,38.75
2023-05-14T08:29:31.355Z,36.53
2023-05-14T08:32:03.853Z,35.03
2023-05-14T08:34:39.928Z,35.95
2023-05-14T08:37:09.139Z,36.55
2023-05-14T08:39:37.028Z,35.97
2023-05-14T08:42:07.998Z,36.65
2023-05-14T08:44:40.387Z,35.93
2023-05-14T08:47:13.661Z,35.13
2023-05-14T08:49:42.701Z,33.20
2023-05-14T08:52:12.424Z,33.51
2023-05-14T08:54:40.906Z,36.28
2023-05-14T08:57:10.773Z,34.03
2023-05-14T08:59:38.992Z,35.09
2023-05-14T09:02:07.852Z,34.78
2023-05-14T09:04:35.722Z,35.84
2023-05-14T09:07:06.627Z,34.41
2023-05-14T09:09:36.201Z,34.42
2023-05-14T09:12:04.309Z,31.68
2023-05-14T09:14:34.110Z,32.14
2023-05-14T09:17:02.311Z,31.98
2023-05-14T09:19:30.170Z,32.50
2023-05-14T09:21:59.607Z,32.79
2023-05-14T09:24:29.657Z,32.80
2023-05-14T09:26:59.805Z,33.11
2023-05-14T09:29:28.516Z,33.10
2023-05-14T09:31:57.393Z,34.21
2023-05-14T09:34:26.187Z,32.11
2023-05-14T09:36:57.285Z,33.60
2023-05-14T09:39:25.662Z,31.57
2023-05-14T09:41:53.836Z,31.92
2023-05-14T09:44:23.438Z,33.06
2023-05-14T09:46:51.673Z,33.39
2023-05-14T09:49:19.947Z,34.17
2023-05-14T09:51:48.202Z,31.97
2023-05-14T09:54:16.223Z,29.70
2023-05-14T09:56:45.197Z,29.31
2023-05-14T09:59:13.164Z,29.77
2023-05-14T10:01:44.639Z,31.78
2023-05-14T10:04:13.592Z,31.50
2023-05-14T10:06:42.871Z,31.47
2023-05-14T10:09:13.288Z,30.62
2023-05-14T10:11:45.058Z,32.23
2023-05-14T10:14:18.216Z,36.25
2023-05-14T10:16:50.191Z,37.35
2023-05-14T10:19:19.684Z,39.65
2023-05-14T10:21:54.099Z,39.86
2023-05-14T10:24:22.453Z,40.17
2023-05-14T10:26:50.550Z,40.52
2023-05-14T10:29:18.484Z,37.34
2023-05-14T10:31:50.094Z,36.84
2023-05-14T10:34:37.525Z,37.01
2023-05-14T10:37:06.335Z,35.74
2023-05-14T10:39:45.339Z,33.72
2023-05-14T10:42:14.064Z,33.40
2023-05-14T10:44:48.650Z,32.60
2023-05-14T10:47:18.582Z,35.28
2023-05-14T10:49:49.140Z,34.39
2023-05-14T10:52:20.700Z,35.88
2023-05-14T10:54:53.047Z,37.04
2023-05-14T10:57:23.302Z,40.18
2023-05-14T10:59:53.272Z,39.87
2023-05-14T11:02:26.190Z,42.67
2023-05-14T11:04:59.503Z,43.79
2023-05-14T11:07:32.938Z,44.42
2023-05-14T11:10:06.823Z,44.79
2023-05-14T11:12:35.820Z,45.27
2023-05-14T11:15:06.092Z,44.71
2023-05-14T11:17:36.807Z,44.47
2023-05-14T11:20:06.406Z,44.74
2023-05-14T11:22:34.684Z,44.71
2023-05-14T11:25:02.767Z,45.67
2023-05-14T11:27:31.697Z,46.85
2023-05-14T11:30:00.955Z,43.98
2023-05-14T11:32:29.061Z,42.36
2023-05-14T11:34:58.431Z,43.76
2023-05-14T11:37:26.298Z,43.85
2023-05-14T11:39:55.273Z,42.46
2023-05-14T11:42:25.011Z,43.11
2023-05-14T11:44:56.881Z,43.44
2023-05-14T11:47:24.841Z,41.06
2023-05-14T11:49:52.807Z,40.11
2023-05-14T11:52:22.271Z,40.09
2023-05-14T11:54:50.921Z,41.19
2023-05-14T11:57:21.064Z,42.76
2023-05-14T11:59:50.663Z,39.72
2023-05-14T12:02:19.803Z,40.73
2023-05-14T12:04:52.031Z,39.29
2023-05-14T12:07:20.455Z,39.40
2023-05-14T12:09:50.768Z,38.92
2023-05-14T12:12:20.241Z,38.44
2023-05-14T12:14:48.360Z,37.51
2023-05-14T12:17:17.732Z,37.74
2023-05-14T12:19:47.026Z,36.99
2023-05-14T12:22:16.661Z,36.85
2023-05-14T12:24:45.134Z,35.09
2023-05-14T12:27:14.762Z,35.77
2023-05-14T12:29:44.784Z,35.05
2023-05-14T12:32:12.738Z,33.47
2023-05-14T12:34:40.581Z,34.83
2023-05-14T12:37:08.503Z,33.65
2023-05-14T12:39:36.882Z,34.79
2023-05-14T12:42:04.956Z,34.28
2023-05-14T12:44:34.278Z,34.34
2023-05-14T12:47:02.208Z,35.88
2023-05-14T12:49:30.155Z,35.43
2023-05-14T12:52:17.087Z,34.75
2023-05-14T12:54:45.896Z,33.17
2023-05-14T12:57:13.835Z,35.34
2023-05-14T12:59:43.043Z,34.22
2023-05-14T13:02:10.911Z,34.99
2023-05-14T13:04:39.302Z,33.83
2023-05-14T13:07:08.810Z,33.24
2023-05-14T13:09:36.724Z,33.62
2023-05-14T13:12:05.074Z,34.11
2023-05-14T13:14:32.924Z,36.39
2023-05-14T13:17:02.165Z,35.56
2023-05-14T13:19:30.081Z,33.48
2023-05-14T13:21:58.081Z,33.79
2023-05-14T13:24:28.540Z,33.26
2023-05-14T13:26:56.612Z,31.36
2023-05-14T13:29:25.532Z,32.78
2023-05-14T13:31:53.806Z,35.07
2023-05-14T13:34:23.072Z,33.77
2023-05-14T13:36:51.162Z,34.42
2023-05-14T13:41:50.795Z,34.23
2023-05-14T13:44:18.721Z,35.25
2023-05-14T13:46:46.673Z,35.78
2023-05-14T13:49:14.615Z,35.71
2023-05-14T13:51:43.922Z,35.01
2023-05-14T13:54:11.824Z,33.79
2023-05-14T13:56:39.808Z,34.37
2023-05-14T13:59:07.735Z,32.81
2023-05-14T14:01:35.659Z,32.56
2023-05-14T14:04:03.588Z,32.88
2023-05-14T14:06:33.139Z,34.20
2023-05-14T14:09:02.419Z,33.84
2023-05-14T14:11:30.342Z,33.66
2023-05-14T14:13:58.223Z,33.94
2023-05-14T14:16:26.066Z,36.25
2023-05-14T14:18:54.062Z,35.46
2023-05-14T14:21:21.942Z,35.59
2023-05-14T14:23:49.721Z,34.98
2023-05-14T14:26:18.903Z,33.66
2023-05-14T14:28:46.770Z,36.01
2023-05-14T14:31:14.910Z,34.65
2023-05-14T14:33:42.907Z,32.06
2023-05-14T14:36:11.364Z,32.74
2023-05-14T14:38:39.943Z,32.46
2023-05-14T14:41:08.004Z,31.53
2023-05-14T14:43:37.740Z,33.58
2023-05-14T14:46:05.805Z,32.40
2023-05-14T14:48:37.448Z,33.97
2023-05-14T14:51:06.671Z,34.24
2023-05-14T14:53:35.917Z,33.44
2023-05-14T14:56:04.096Z,32.48
2023-05-14T14:58:32.056Z,33.41
2023-05-14T15:01:02.089Z,32.04
2023-05-14T15:03:30.195Z,31.01
2023-05-14T15:05:58.254Z,31.34
2023-05-14T15:08:27.582Z,30.65
2023-05-14T15:10:55.867Z,32.55
2023-05-14T15:13:24.390Z,33.51
2023-05-14T15:15:52.851Z,32.89
2023-05-14T15:18:22.231Z,33.04
2023-05-14T15:20:50.610Z,31.27
2023-05-14T15:23:18.523Z,31.81
2023-05-14T15:25:46.436Z,32.24
2023-05-14T15:28:14.289Z,35.23
2023-05-14T15:30:42.119Z,35.82
2023-05-14T15:33:10.121Z,35.90
2023-05-14T15:35:39.363Z,36.97
2023-05-14T15:38:08.246Z,37.04
2023-05-14T15:40:36.160Z,37.85
2023-05-14T15:43:04.182Z,37.10
2023-05-14T15:45:32.112Z,37.44
2023-05-14T15:48:00.055Z,37.85
2023-05-14T15:50:28.017Z,37.89
2023-05-14T15:52:57.361Z,37.98
2023-05-14T15:55:25.308Z,38.08
2023-05-14T15:57:53.123Z,37.93
2023-05-14T16:00:21.790Z,37.44
2023-05-14T16:02:49.872Z,37.10
2023-05-14T16:05:17.880Z,37.53
2023-05-14T16:07:45.790Z,37.31
2023-05-14T16:10:15.073Z,37.63
2023-05-14T16:12:42.911Z,38.17
2023-05-14T16:15:11.688Z,37.83
2023-05-14T16:17:39.877Z,38.56
2023-05-14T16:20:09.608Z,38.30
2023-05-14T16:22:37.724Z,38.52
2023-05-14T16:25:06.410Z,38.74
2023-05-14T16:27:36.531Z,39.37
2023-05-14T16:30:05.080Z,39.77
2023-05-14T16:32:33.741Z,39.83
2023-05-14T16:35:02.672Z,40.19
2023-05-14T16:37:30.648Z,39.98
2023-05-14T16:39:58.485Z,39.56
2023-05-14T16:42:26.766Z,40.25
2023-05-14T16:44:55.874Z,39.80
2023-05-14T16:47:23.749Z,39.13
2023-05-14T16:49:51.617Z,40.34
2023-05-14T16:52:19.499Z,40.70
2023-05-14T16:54:47.235Z,40.31
2023-05-14T16:57:15.140Z,40.24
2023-05-14T16:59:43.080Z,40.98
2023-05-14T17:02:12.286Z,40.01
2023-05-14T17:04:42.124Z,40.09
2023-05-14T17:07:10.244Z,40.34
2023-05-14T17:09:38.460Z,39.45
2023-05-14T17:12:06.940Z,39.00
2023-05-14T17:14:34.857Z,39.97
2023-05-14T17:17:03.085Z,40.83
2023-05-14T17:19:32.330Z,40.00
2023-05-14T17:22:00.572Z,40.94
2023-05-14T17:24:28.533Z,40.87
2023-05-14T17:26:56.555Z,40.67
2023-05-14T17:29:24.560Z,41.01
2023-05-14T17:31:52.543Z,41.30
2023-05-14T17:34:21.070Z,41.10
2023-05-14T17:36:50.630Z,41.33
2023-05-14T17:39:18.451Z,41.57
2023-05-14T17:41:46.360Z,42.63
2023-05-14T17:44:14.429Z,42.42
2023-05-14T17:46:42.649Z,42.16
2023-05-14T17:49:11.781Z,43.33
2023-05-14T17:51:39.691Z,44.09
2023-05-14T17:54:09.006Z,44.90
2023-05-14T17:56:37.280Z,44.74
2023-05-14T17:59:05.571Z,44.71
2023-05-14T18:01:33.799Z,44.57
2023-05-14T18:04:01.717Z,46.37
2023-05-14T18:06:29.756Z,44.04
2023-05-14T18:08:57.729Z,44.56
2023-05-14T18:11:32.650Z,44.58
2023-05-14T18:14:00.828Z,45.69
2023-05-14T18:16:29.259Z,46.37
2023-05-14T18:18:57.246Z,47.71
2023-05-14T18:21:25.223Z,46.37
2023-05-14T18:23:53.116Z,47.10
2023-05-14T18:26:21.896Z,46.78
2023-05-14T18:28:51.424Z,47.83
2023-05-14T18:31:19.588Z,47.33
2023-05-14T18:33:47.520Z,46.94
2023-05-14T18:36:15.466Z,47.40
2023-05-14T18:38:43.348Z,47.65
2023-05-14T18:41:11.193Z,49.45
2023-05-14T18:43:39.114Z,48.58
2023-05-14T18:46:08.481Z,50.23
2023-05-14T18:48:36.364Z,48.67
2023-05-14T18:51:05.349Z,50.24
2023-05-14T18:53:33.269Z,49.86
2023-05-14T18:56:01.330Z,50.34
2023-05-14T18:58:29.198Z,51.03
2023-05-14T19:00:58.387Z,51.86
2023-05-14T19:03:28.142Z,51.42
2023-05-14T19:05:56.857Z,52.58
2023-05-14T19:08:25.365Z,51.01
2023-05-14T19:10:54.825Z,51.67
2023-05-14T19:13:23.776Z,51.84
2023-05-14T19:15:54.705Z,51.79
2023-05-14T19:18:23.195Z,52.43
2023-05-14T19:20:52.692Z,53.99
2023-05-14T19:23:21.062Z,53.71
2023-05-14T19:25:49.025Z,53.94
2023-05-14T19:28:19.861Z,53.84
2023-05-14T19:30:47.887Z,54.57
2023-05-14T19:33:15.957Z,54.67
2023-05-14T19:35:43.959Z,55.15
2023-05-14T19:38:14.649Z,55.78
2023-05-14T19:40:44.392Z,55.32
2023-05-14T19:43:12.991Z,56.14
2023-05-14T19:45:42.627Z,56.43
2023-05-14T19:48:12.397Z,56.48
2023-05-14T19:50:41.405Z,57.12
2023-05-14T19:53:09.303Z,57.46
2023-05-14T19:55:38.713Z,57.94
2023-05-14T19:58:06.621Z,58.68
2023-05-14T20:00:34.507Z,59.50
2023-05-14T20:03:02.591Z,59.63
2023-05-14T20:05:30.631Z,59.40
2023-05-14T20:07:58.479Z,60.32
2023-05-14T20:10:26.662Z,60.49
2023-05-14T20:12:56.215Z,61.50
2023-05-14T20:15:24.280Z,61.83
2023-05-14T20:17:53.601Z,62.09
2023-05-14T20:20:22.279Z,62.66
2023-05-14T20:22:50.695Z,63.62
2023-05-14T20:25:18.883Z,64.40
2023-05-14T20:27:47.720Z,64.75
2023-05-14T20:30:20.123Z,64.97
2023-05-14T20:32:50.374Z,65.58
2023-05-14T20:35:21.445Z,65.52
2023-05-14T20:37:50.683Z,65.90
2023-05-14T20:40:21.529Z,66.07
2023-05-14T20:42:51.484Z,65.82
2023-05-14T20:45:21.642Z,66.26
2023-05-14T20:47:50.101Z,66.74
2023-05-14T20:50:23.979Z,66.65
2023-05-14T20:52:57.350Z,67.29
2023-05-14T20:55:32.862Z,68.33
2023-05-14T20:58:01.205Z,68.39
2023-05-14T21:00:30.804Z,67.66
2023-05-14T21:03:00.206Z,68.23
2023-05-14T21:05:29.047Z,69.16
2023-05-14T21:07:57.262Z,70.42
2023-05-14T21:10:28.792Z,70.90
2023-05-14T21:13:02.369Z,72.09
2023-05-14T21:15:32.733Z,72.79
2023-05-14T21:18:01.226Z,73.80
2023-05-14T21:20:30.911Z,75.03
2023-05-14T21:23:01.269Z,75.96
2023-05-14T21:25:31.800Z,76.16
2023-05-14T21:28:00.154Z,76.18
2023-05-14T21:30:32.851Z,76.70
2023-05-14T21:33:02.208Z,76.33
2023-05-14T21:35:30.188Z,75.05
2023-05-14T21:38:05.883Z,74.96
2023-05-14T21:40:34.051Z,74.49
2023-05-14T21:43:04.796Z,74.38
2023-05-14T21:45:37.590Z,76.39
2023-05-14T21:48:07.914Z,77.49
2023-05-14T21:50:37.108Z,76.80
2023-05-14T21:53:06.899Z,79.03
2023-05-14T21:55:36.133Z,77.91
2023-05-14T21:58:07.119Z,78.82
2023-05-14T22:00:36.754Z,78.62
2023-05-14T22:03:09.189Z,78.72
2023-05-14T22:05:38.065Z,78.56
2023-05-14T22:08:11.255Z,79.69
2023-05-14T22:10:47.065Z,79.86
2023-05-14T22:13:17.800Z,80.50
2023-05-14T22:15:47.409Z,79.91
2023-05-14T22:18:16.396Z,81.01
2023-05-14T22:20:44.261Z,80.69
2023-05-14T22:23:13.055Z,81.55
2023-05-14T22:25:41.032Z,81.83
2023-05-14T22:28:08.958Z,81.40
2023-05-14T22:30:36.882Z,82.48
2023-05-14T22:33:06.152Z,82.25
2023-05-14T22:35:34.109Z,81.13
2023-05-14T22:38:02.031Z,82.07
2023-05-14T22:40:29.856Z,82.03
2023-05-14T22:42:57.683Z,81.65
2023-05-14T22:45:25.773Z,83.09
2023-05-14T22:47:54.240Z,82.94
2023-05-14T22:50:23.581Z,83.36
2023-05-14T22:52:51.483Z,82.74
2023-05-14T22:55:19.414Z,82.26
2023-05-14T22:57:47.304Z,82.60
2023-05-14T23:00:16.160Z,82.46
2023-05-14T23:02:44.504Z,82.09
2023-05-14T23:05:12.463Z,83.01
2023-05-14T23:07:41.809Z,83.29
2023-05-14T23:10:10.478Z,83.54
2023-05-14T23:12:38.419Z,84.61
2023-05-14T23:15:07.359Z,85.45
2023-05-14T23:17:35.516Z,85.78
2023-05-14T23:20:04.889Z,85.40
2023-05-14T23:22:32.968Z,85.54
2023-05-14T23:25:02.216Z,85.88
2023-05-14T23:27:29.983Z,85.28
2023-05-14T23:29:57.944Z,85.96
2023-05-14T23:32:25.848Z,87.20
2023-05-14T23:34:53.826Z,87.33
2023-05-14T23:37:21.798Z,88.51
2023-05-14T23:39:49.668Z,88.48
2023-05-14T23:42:19.060Z,89.77
2023-05-14T23:44:47.020Z,89.90
2023-05-14T23:47:14.895Z,90.48
2023-05-14T23:49:42.887Z,91.06
2023-05-14T23:52:11.312Z,91.72
2023-05-14T23:54:39.294Z,92.17
2023-05-14T23:57:07.539Z,92.21
2023-05-14T23:59:36.879Z,93.07
